createdAt,value
2022-09-20T00:01:34.086Z,99.90
2022-09-20T00:04:04.971Z,99.90
2022-09-20T00:06:33.404Z,99.90
2022-09-20T00:09:01.453Z,99.90
2022-09-20T00:11:34.027Z,99.90
2022-09-20T00:14:03.218Z,99.90
2022-09-20T00:16:33.676Z,99.90
2022-09-20T00:19:04.087Z,99.90
2022-09-20T00:21:33.326Z,99.90
2022-09-20T00:24:02.801Z,99.90
2022-09-20T00:26:32.452Z,99.90
2022-09-20T00:29:00.216Z,99.90
2022-09-20T00:31:27.659Z,99.90
2022-09-20T00:34:19.132Z,99.90
2022-09-20T00:36:48.835Z,99.90
2022-09-20T00:39:18.410Z,99.90
2022-09-20T00:41:48.427Z,99.90
2022-09-20T00:44:52.808Z,99.90
2022-09-20T00:47:29.472Z,99.90
2022-09-20T00:50:28.891Z,99.90
2022-09-20T00:53:03.676Z,99.90
2022-09-20T00:55:31.574Z,99.90
2022-09-20T00:57:59.498Z,99.90
2022-09-20T01:00:27.805Z,99.90
2022-09-20T01:03:02.606Z,99.90
2022-09-20T01:05:30.113Z,99.90
2022-09-20T01:07:58.253Z,99.90
2022-09-20T01:10:25.563Z,99.90
2022-09-20T01:12:56.308Z,99.90
2022-09-20T01:15:25.239Z,99.90
2022-09-20T01:17:55.085Z,99.90
2022-09-20T01:20:38.995Z,99.90
2022-09-20T01:23:30.050Z,99.90
2022-09-20T01:26:25.954Z,99.90
2022-09-20T01:29:20.809Z,99.90
2022-09-20T01:31:56.244Z,99.90
2022-09-20T01:34:37.009Z,99.90
2022-09-20T01:37:19.278Z,99.90
2022-09-20T01:40:12.455Z,99.90
2022-09-20T01:42:57.018Z,99.90
2022-09-20T01:45:29.755Z,99.90
2022-09-20T01:48:17.871Z,99.90
2022-09-20T01:50:57.203Z,99.90
2022-09-20T01:53:36.556Z,99.90
2022-09-20T01:56:23.860Z,99.90
2022-09-20T01:59:25.261Z,99.90
2022-09-20T02:02:09.668Z,99.90
2022-09-20T02:05:27.092Z,99.90
2022-09-20T02:08:33.219Z,99.90
2022-09-20T02:11:06.174Z,99.90
2022-09-20T02:14:02.292Z,99.90
2022-09-20T02:16:48.683Z,99.90
2022-09-20T02:19:33.741Z,99.90
2022-09-20T02:22:38.700Z,99.90
2022-09-20T02:25:17.711Z,99.90
2022-09-20T02:28:26.367Z,99.90
2022-09-20T02:30:59.240Z,99.90
2022-09-20T02:33:41.304Z,99.90
2022-09-20T02:36:35.588Z,99.90
2022-09-20T02:39:22.324Z,99.90
2022-09-20T02:42:12.959Z,99.90
2022-09-20T02:45:44.679Z,99.90
2022-09-20T02:48:17.961Z,99.90
2022-09-20T02:50:59.071Z,99.90
2022-09-20T02:53:45.742Z,99.90
2022-09-20T02:56:44.684Z,99.90
2022-09-20T02:59:20.600Z,99.90
2022-09-20T03:02:12.462Z,99.90
2022-09-20T03:05:17.123Z,99.90
2022-09-20T03:08:18.446Z,99.90
2022-09-20T03:11:01.003Z,99.90
2022-09-20T03:13:42.348Z,99.90
2022-09-20T03:16:28.556Z,99.90
2022-09-20T03:19:23.597Z,99.90
2022-09-20T03:22:13.954Z,99.90
2022-09-20T03:24:59.446Z,99.90
2022-09-20T03:28:01.024Z,99.90
2022-09-20T03:31:06.970Z,99.90
2022-09-20T03:34:02.168Z,99.90
2022-09-20T03:36:58.157Z,99.90
2022-09-20T03:39:38.609Z,99.90
2022-09-20T03:42:17.858Z,99.90
2022-09-20T03:45:18.554Z,99.90
2022-09-20T03:48:04.120Z,99.90
2022-09-20T03:51:01.542Z,99.90
2022-09-20T03:53:52.872Z,99.90
2022-09-20T03:56:43.704Z,99.90
2022-09-20T03:59:44.192Z,99.90
2022-09-20T04:02:51.350Z,99.90
2022-09-20T04:05:46.724Z,99.90
2022-09-20T04:08:14.105Z,99.90
2022-09-20T04:11:08.501Z,99.90
2022-09-20T04:13:39.966Z,99.90
2022-09-20T04:16:28.335Z,99.90
2022-09-20T04:19:30.770Z,99.90
2022-09-20T04:22:01.434Z,99.90
2022-09-20T04:24:28.889Z,99.90
2022-09-20T04:27:13.326Z,99.90
2022-09-20T04:29:52.171Z,99.90
2022-09-20T04:32:50.275Z,99.90
2022-09-20T04:35:45.615Z,99.90
2022-09-20T04:38:16.681Z,99.90
2022-09-20T04:41:00.179Z,99.90
2022-09-20T04:43:53.748Z,99.90
2022-09-20T04:46:36.809Z,99.90
2022-09-20T04:49:26.308Z,99.90
2022-09-20T04:52:20.293Z,99.90
2022-09-20T04:55:04.915Z,99.90
2022-09-20T04:57:41.344Z,99.90
2022-09-20T05:00:13.791Z,99.90
2022-09-20T05:03:20.161Z,99.90
2022-09-20T05:06:17.324Z,99.90
2022-09-20T05:08:47.782Z,99.90
2022-09-20T05:11:51.464Z,99.90
2022-09-20T05:14:34.825Z,99.90
2022-09-20T05:17:08.084Z,99.90
2022-09-20T05:19:56.007Z,99.90
2022-09-20T05:23:06.011Z,99.90
2022-09-20T05:25:36.946Z,99.90
2022-09-20T05:28:19.374Z,99.90
2022-09-20T05:30:50.570Z,99.90
2022-09-20T05:33:50.064Z,99.90
2022-09-20T05:36:38.933Z,99.90
2022-09-20T05:39:34.091Z,99.90
2022-09-20T05:42:34.684Z,99.90
2022-09-20T05:45:36.703Z,99.90
2022-09-20T05:48:21.917Z,99.90
2022-09-20T05:51:04.778Z,99.90
2022-09-20T05:54:05.751Z,99.90
2022-09-20T05:56:44.922Z,99.90
2022-09-20T05:59:36.889Z,99.90
2022-09-20T06:02:32.038Z,99.90
2022-09-20T06:05:16.887Z,99.90
2022-09-20T06:07:51.101Z,99.90
2022-09-20T06:10:47.305Z,99.90
2022-09-20T06:13:30.780Z,99.90
2022-09-20T06:16:06.139Z,99.90
2022-09-20T06:19:19.140Z,99.90
2022-09-20T06:21:55.722Z,99.90
2022-09-20T06:24:37.375Z,99.90
2022-09-20T06:27:10.810Z,99.90
2022-09-20T06:29:40.582Z,99.90
2022-09-20T06:32:08.232Z,99.90
2022-09-20T06:34:35.996Z,99.90
2022-09-20T06:37:47.969Z,99.90
2022-09-20T06:40:36.892Z,99.90
2022-09-20T06:43:04.703Z,99.90
2022-09-20T06:45:32.167Z,99.90
2022-09-20T06:48:02.287Z,99.90
2022-09-20T06:50:29.527Z,99.90
2022-09-20T06:52:56.719Z,99.90
2022-09-20T06:55:32.152Z,99.90
2022-09-20T06:57:59.890Z,99.90
2022-09-20T07:00:27.552Z,99.90
2022-09-20T07:02:55.501Z,99.90
2022-09-20T07:05:24.088Z,99.90
2022-09-20T07:07:57.518Z,99.90
2022-09-20T07:10:28.006Z,99.90
2022-09-20T07:12:59.482Z,99.90
2022-09-20T07:15:34.512Z,99.90
2022-09-20T07:18:04.239Z,99.90
2022-09-20T07:20:34.476Z,99.90
2022-09-20T07:23:04.315Z,99.90
2022-09-20T07:25:34.276Z,99.90
2022-09-20T07:28:04.592Z,99.90
2022-09-20T07:30:32.304Z,99.90
2022-09-20T07:33:00.640Z,99.90
2022-09-20T07:35:28.440Z,99.90
2022-09-20T07:37:59.464Z,99.90
2022-09-20T07:40:27.385Z,99.90
2022-09-20T07:42:59.431Z,99.90
2022-09-20T07:45:29.682Z,99.90
2022-09-20T07:48:05.153Z,99.90
2022-09-20T07:50:33.428Z,99.90
2022-09-20T07:53:00.891Z,99.90
2022-09-20T07:55:30.982Z,99.90
2022-09-20T07:57:58.246Z,99.90
2022-09-20T08:00:25.605Z,99.90
2022-09-20T08:02:59.279Z,99.90
2022-09-20T08:05:27.363Z,99.90
2022-09-20T08:07:59.767Z,99.90
2022-09-20T08:10:27.534Z,99.90
2022-09-20T08:15:44.545Z,99.90
2022-09-20T08:18:12.042Z,99.90
2022-09-20T08:20:41.900Z,99.90
2022-09-20T08:23:22.906Z,99.90
2022-09-20T08:25:53.328Z,99.90
2022-09-20T08:28:20.558Z,99.90
2022-09-20T08:30:49.988Z,99.90
2022-09-20T08:33:17.220Z,99.90
2022-09-20T08:35:48.267Z,99.90
2022-09-20T08:41:07.876Z,99.90
2022-09-20T08:43:45.551Z,99.90
2022-09-20T08:46:23.312Z,99.90
2022-09-20T08:48:52.262Z,99.90
2022-09-20T08:51:23.142Z,99.90
2022-09-20T08:53:53.365Z,99.90
2022-09-20T08:56:21.863Z,99.90
2022-09-20T08:58:49.491Z,99.90
2022-09-20T09:01:25.388Z,99.90
2022-09-20T09:04:01.864Z,99.90
2022-09-20T09:06:29.131Z,99.90
2022-09-20T09:09:00.029Z,99.90
2022-09-20T09:11:28.304Z,99.90
2022-09-20T09:14:30.342Z,99.90
2022-09-20T09:16:58.472Z,99.90
2022-09-20T09:19:34.859Z,99.90
2022-09-20T09:22:04.942Z,99.90
2022-09-20T09:24:32.777Z,99.90
2022-09-20T09:27:18.742Z,99.90
2022-09-20T09:29:51.201Z,99.90
2022-09-20T09:32:24.293Z,99.90
2022-09-20T09:34:54.242Z,99.90
2022-09-20T09:37:31.153Z,99.90
2022-09-20T09:40:18.638Z,99.90
2022-09-20T09:42:57.524Z,99.90
2022-09-20T09:45:28.181Z,99.90
2022-09-20T09:47:56.811Z,99.90
2022-09-20T09:50:34.842Z,99.90
2022-09-20T09:53:22.496Z,99.90
2022-09-20T09:56:19.926Z,99.90
2022-09-20T09:58:56.140Z,99.90
2022-09-20T10:02:01.388Z,99.90
2022-09-20T10:04:32.533Z,99.90
2022-09-20T10:07:02.502Z,99.90
2022-09-20T10:09:53.788Z,99.90
2022-09-20T10:12:55.728Z,99.90
2022-09-20T10:16:04.302Z,99.90
2022-09-20T10:18:48.878Z,99.90
2022-09-20T10:21:48.844Z,99.90
2022-09-20T10:24:31.602Z,99.90
2022-09-20T10:27:20.380Z,99.90
2022-09-20T10:29:53.519Z,99.90
2022-09-20T10:32:41.939Z,99.90
2022-09-20T10:35:27.726Z,99.90
2022-09-20T10:38:20.145Z,99.90
2022-09-20T10:41:24.579Z,99.90
2022-09-20T10:44:12.541Z,99.90
2022-09-20T10:47:01.981Z,99.90
2022-09-20T10:49:53.625Z,99.90
2022-09-20T10:52:38.220Z,99.90
2022-09-20T10:55:40.364Z,99.90
2022-09-20T10:58:39.859Z,99.90
2022-09-20T11:01:13.088Z,99.90
2022-09-20T11:04:13.840Z,99.90
2022-09-20T11:07:20.633Z,99.90
2022-09-20T11:10:00.029Z,99.90
2022-09-20T11:12:32.357Z,99.90
2022-09-20T11:15:16.439Z,99.90
2022-09-20T11:17:51.719Z,99.90
2022-09-20T11:20:32.213Z,99.90
2022-09-20T11:23:10.398Z,99.90
2022-09-20T11:25:44.943Z,99.90
2022-09-20T11:28:25.655Z,99.90
2022-09-20T11:31:00.248Z,98.60
2022-09-20T11:33:34.571Z,99.90
2022-09-20T11:36:09.912Z,99.90
2022-09-20T11:38:57.726Z,99.70
2022-09-20T11:41:31.401Z,99.90
2022-09-20T11:44:13.461Z,99.40
2022-09-20T11:46:55.089Z,99.20
2022-09-20T11:49:29.343Z,98.60
2022-09-20T11:52:14.441Z,99.60
2022-09-20T11:55:23.741Z,98.70
2022-09-20T11:58:15.931Z,96.90
2022-09-20T12:00:46.772Z,97.00
2022-09-20T12:03:41.857Z,96.80
2022-09-20T12:06:28.848Z,97.70
2022-09-20T12:08:58.633Z,98.20
2022-09-20T12:11:36.052Z,99.40
2022-09-20T12:14:22.623Z,98.50
2022-09-20T12:16:50.366Z,98.30
2022-09-20T12:19:33.224Z,99.10
2022-09-20T12:22:07.119Z,99.90
2022-09-20T12:24:37.062Z,98.60
2022-09-20T12:27:23.148Z,99.00
2022-09-20T12:30:15.037Z,98.70
2022-09-20T12:32:47.016Z,99.90
2022-09-20T12:35:35.801Z,97.70
2022-09-20T12:38:26.717Z,99.90
2022-09-20T12:41:17.424Z,99.30
2022-09-20T12:44:20.034Z,99.70
2022-09-20T12:47:16.407Z,95.40
2022-09-20T12:50:08.114Z,94.90
2022-09-20T12:52:57.224Z,96.60
2022-09-20T12:55:27.967Z,93.90
2022-09-20T12:58:06.125Z,89.80
2022-09-20T13:00:58.059Z,90.60
2022-09-20T13:03:48.469Z,90.30
2022-09-20T13:06:16.620Z,90.10
2022-09-20T13:09:08.569Z,92.20
2022-09-20T13:11:56.929Z,91.40
2022-09-20T13:14:29.782Z,90.50
2022-09-20T13:17:06.703Z,93.00
2022-09-20T13:19:44.334Z,93.20
2022-09-20T13:22:25.744Z,92.00
2022-09-20T13:25:01.279Z,91.10
2022-09-20T13:27:41.162Z,92.60
2022-09-20T13:30:19.326Z,92.70
2022-09-20T13:32:48.260Z,92.00
2022-09-20T13:35:22.693Z,93.00
2022-09-20T13:38:02.513Z,93.20
2022-09-20T13:40:43.616Z,92.80
2022-09-20T13:43:24.433Z,94.40
2022-09-20T13:46:00.846Z,93.70
2022-09-20T13:48:29.677Z,94.90
2022-09-20T13:50:57.873Z,95.00
2022-09-20T13:53:41.535Z,95.10
2022-09-20T13:56:22.414Z,93.80
2022-09-20T13:58:51.065Z,94.50
2022-09-20T14:01:27.196Z,94.70
2022-09-20T14:04:17.005Z,96.40
2022-09-20T14:06:45.671Z,96.70
2022-09-20T14:09:39.492Z,97.00
2022-09-20T14:12:10.222Z,97.00
2022-09-20T14:14:38.441Z,98.00
2022-09-20T14:17:09.484Z,95.40
2022-09-20T14:19:41.716Z,97.00
2022-09-20T14:22:25.734Z,96.40
2022-09-20T14:25:18.260Z,97.30
2022-09-20T14:27:45.730Z,99.40
2022-09-20T14:30:33.821Z,97.10
2022-09-20T14:33:01.841Z,96.60
2022-09-20T14:35:29.663Z,96.20
2022-09-20T14:38:10.257Z,97.20
2022-09-20T14:40:48.836Z,96.70
2022-09-20T14:43:26.815Z,97.80
2022-09-20T14:46:04.127Z,97.60
2022-09-20T14:48:42.858Z,97.80
2022-09-20T14:51:19.642Z,98.30
2022-09-20T14:53:50.222Z,98.40
2022-09-20T14:56:27.217Z,99.30
2022-09-20T14:59:20.402Z,99.40
2022-09-20T15:02:03.805Z,99.20
2022-09-20T15:04:33.038Z,99.90
2022-09-20T15:07:02.674Z,99.20
2022-09-20T15:09:30.146Z,98.80
2022-09-20T15:12:21.416Z,98.90
2022-09-20T15:14:49.670Z,99.10
2022-09-20T15:17:19.532Z,99.90
2022-09-20T15:19:47.800Z,99.60
2022-09-20T15:22:15.204Z,99.90
2022-09-20T15:24:42.998Z,99.90
2022-09-20T15:27:12.399Z,99.90
2022-09-20T15:29:41.873Z,99.90
2022-09-20T15:32:11.446Z,99.90
2022-09-20T15:34:38.866Z,99.90
2022-09-20T15:37:06.300Z,99.90
2022-09-20T15:39:33.621Z,99.90
2022-09-20T15:42:03.978Z,99.90
2022-09-20T15:44:32.748Z,99.90
2022-09-20T15:47:00.405Z,99.90
2022-09-20T15:49:27.741Z,99.90
2022-09-20T15:51:55.018Z,99.90
2022-09-20T15:54:22.805Z,99.90
2022-09-20T15:56:53.345Z,99.90
2022-09-20T15:59:23.209Z,99.90
2022-09-20T16:01:51.671Z,99.90
2022-09-20T16:04:20.932Z,99.90
2022-09-20T16:06:49.868Z,99.90
2022-09-20T16:09:18.457Z,99.90
2022-09-20T16:11:49.134Z,99.90
2022-09-20T16:14:16.437Z,99.90
2022-09-20T16:16:43.666Z,99.90
2022-09-20T16:19:24.925Z,99.90
2022-09-20T16:21:59.592Z,99.90
2022-09-20T16:24:29.565Z,99.90
2022-09-20T16:26:57.970Z,99.90
2022-09-20T16:29:26.039Z,99.90
2022-09-20T16:31:55.139Z,99.90
2022-09-20T16:34:31.419Z,99.90
2022-09-20T16:37:08.933Z,99.90
2022-09-20T16:39:43.368Z,99.90
2022-09-20T16:42:12.382Z,99.90
2022-09-20T16:44:45.374Z,99.90
2022-09-20T16:47:22.309Z,99.90
2022-09-20T16:49:50.285Z,99.90
2022-09-20T16:52:18.246Z,99.90
2022-09-20T16:54:46.379Z,99.90
2022-09-20T16:57:15.496Z,99.90
2022-09-20T16:59:43.095Z,99.90
2022-09-20T17:02:13.488Z,99.90
2022-09-20T17:04:43.686Z,99.90
2022-09-20T17:07:14.134Z,99.90
2022-09-20T17:09:41.441Z,99.90
2022-09-20T17:12:09.624Z,99.90
2022-09-20T17:14:39.363Z,99.90
2022-09-20T17:17:09.692Z,99.90
2022-09-20T17:19:36.899Z,99.90
2022-09-20T17:22:07.305Z,99.90
2022-09-20T17:24:36.859Z,99.90
2022-09-20T17:27:04.758Z,99.90
2022-09-20T17:29:31.979Z,99.90
2022-09-20T17:31:59.960Z,99.90
2022-09-20T17:34:29.365Z,99.90
2022-09-20T17:36:56.687Z,99.90
2022-09-20T17:39:24.561Z,99.90
2022-09-20T17:41:54.185Z,99.90
2022-09-20T17:44:21.469Z,99.90
2022-09-20T17:46:50.357Z,99.90
2022-09-20T17:49:20.398Z,99.90
2022-09-20T17:51:55.162Z,99.90
2022-09-20T17:54:23.374Z,99.90
2022-09-20T17:56:53.445Z,99.90
2022-09-20T17:59:23.187Z,99.90
2022-09-20T18:01:51.961Z,99.90
2022-09-20T18:04:21.248Z,99.90
2022-09-20T18:06:53.354Z,99.90
2022-09-20T18:09:22.894Z,99.90
2022-09-20T18:11:54.919Z,99.90
2022-09-20T18:14:28.081Z,99.90
2022-09-20T18:17:01.163Z,99.90
2022-09-20T18:19:34.335Z,99.90
2022-09-20T18:22:03.315Z,99.90
2022-09-20T18:24:31.599Z,99.90
2022-09-20T18:27:01.299Z,99.90
2022-09-20T18:29:29.293Z,99.90
2022-09-20T18:31:57.883Z,99.90
2022-09-20T18:34:31.226Z,99.90
2022-09-20T18:37:00.363Z,99.90
2022-09-20T18:39:38.252Z,99.90
2022-09-20T18:42:07.794Z,99.90
2022-09-20T18:44:35.502Z,99.90
2022-09-20T18:47:04.504Z,99.90
2022-09-20T18:49:33.058Z,99.90
2022-09-20T18:52:01.046Z,99.90
2022-09-20T18:54:33.557Z,99.90
2022-09-20T18:57:01.768Z,99.90
2022-09-20T18:59:29.333Z,99.90
2022-09-20T19:02:21.218Z,99.90
2022-09-20T19:05:01.140Z,99.90
2022-09-20T19:07:28.624Z,99.90
2022-09-20T19:10:28.718Z,99.90
2022-09-20T19:13:23.457Z,99.90
2022-09-20T19:16:04.990Z,99.90
2022-09-20T19:18:51.502Z,99.90
2022-09-20T19:21:30.900Z,99.90
2022-09-20T19:24:25.089Z,99.90
2022-09-20T19:26:53.041Z,99.90
2022-09-20T19:29:24.858Z,99.90
2022-09-20T19:31:56.095Z,99.90
2022-09-20T19:34:28.074Z,99.90
2022-09-20T19:37:10.076Z,99.90
2022-09-20T19:39:50.830Z,99.90
2022-09-20T19:42:36.137Z,99.90
2022-09-20T19:45:31.282Z,99.90
2022-09-20T19:48:14.500Z,99.90
2022-09-20T19:50:46.525Z,99.90
2022-09-20T19:53:16.921Z,99.90
2022-09-20T19:55:47.371Z,99.90
2022-09-20T19:58:17.831Z,99.90
2022-09-20T20:00:46.707Z,99.90
2022-09-20T20:03:15.698Z,99.90
2022-09-20T20:05:58.386Z,99.90
2022-09-20T20:08:38.795Z,99.90
2022-09-20T20:11:17.679Z,99.90
2022-09-20T20:14:15.033Z,99.90
2022-09-20T20:17:20.369Z,99.90
2022-09-20T20:20:06.892Z,99.90
2022-09-20T20:22:46.028Z,99.90
2022-09-20T20:25:34.549Z,99.90
2022-09-20T20:28:04.226Z,99.90
2022-09-20T20:30:32.561Z,99.90
2022-09-20T20:33:01.031Z,99.90
2022-09-20T20:35:30.823Z,99.90
2022-09-20T20:38:03.716Z,99.90
2022-09-20T20:40:33.000Z,99.90
2022-09-20T20:43:02.230Z,99.90
2022-09-20T20:45:32.816Z,99.90
2022-09-20T20:48:00.101Z,99.90
2022-09-20T20:50:29.468Z,99.90
2022-09-20T20:52:57.369Z,99.90
2022-09-20T20:55:24.912Z,99.90
2022-09-20T20:57:59.581Z,99.90
2022-09-20T21:00:27.948Z,99.90
2022-09-20T21:03:02.508Z,99.90
2022-09-20T21:05:29.783Z,99.90
2022-09-20T21:07:58.164Z,99.90
2022-09-20T21:10:25.705Z,99.90
2022-09-20T21:12:56.006Z,99.90
2022-09-20T21:15:23.250Z,99.90
2022-09-20T21:17:53.546Z,99.90
2022-09-20T21:20:22.182Z,99.90
2022-09-20T21:22:49.405Z,99.90
2022-09-20T21:25:19.397Z,99.90
2022-09-20T21:27:46.697Z,99.90
2022-09-20T21:30:17.215Z,99.90
2022-09-20T21:32:44.423Z,99.90
2022-09-20T21:35:12.061Z,99.90
2022-09-20T21:37:39.488Z,99.90
2022-09-20T21:40:07.420Z,99.90
2022-09-20T21:42:36.833Z,99.90
2022-09-20T21:45:08.519Z,99.90
2022-09-20T21:47:35.734Z,99.90
2022-09-20T21:50:03.031Z,99.90
2022-09-20T21:52:30.561Z,99.90
2022-09-20T21:54:57.803Z,99.90
2022-09-20T21:57:27.872Z,99.90
2022-09-20T21:59:55.038Z,99.90
2022-09-20T22:02:24.472Z,99.90
2022-09-20T22:04:51.882Z,99.90
2022-09-20T22:07:24.168Z,99.90
2022-09-20T22:09:53.557Z,99.90
2022-09-20T22:12:24.005Z,99.90
2022-09-20T22:14:53.542Z,99.90
2022-09-20T22:17:20.803Z,99.90
2022-09-20T22:19:53.022Z,99.90
2022-09-20T22:22:20.343Z,99.90
2022-09-20T22:24:48.312Z,99.90
2022-09-20T22:27:15.699Z,99.90
2022-09-20T22:29:48.026Z,99.90
2022-09-20T22:32:15.333Z,99.90
2022-09-20T22:34:42.696Z,99.90
2022-09-20T22:37:10.680Z,99.90
2022-09-20T22:39:38.690Z,99.90
2022-09-20T22:42:06.063Z,99.90
2022-09-20T22:44:34.076Z,99.90
2022-09-20T22:47:01.424Z,99.90
2022-09-20T22:49:31.090Z,99.90
2022-09-20T22:51:58.631Z,99.90
2022-09-20T22:54:26.406Z,99.90
2022-09-20T22:56:54.408Z,99.90
2022-09-20T22:59:22.374Z,99.90
2022-09-20T23:01:49.748Z,99.90
2022-09-20T23:04:20.033Z,99.90
2022-09-20T23:06:55.144Z,99.90
2022-09-20T23:09:28.952Z,99.90
2022-09-20T23:12:00.584Z,99.90
2022-09-20T23:14:27.899Z,99.90
2022-09-20T23:16:55.450Z,99.90
2022-09-20T23:19:25.943Z,99.90
2022-09-20T23:21:53.333Z,99.90
2022-09-20T23:24:22.879Z,99.90
2022-09-20T23:26:50.246Z,99.90
2022-09-20T23:29:20.070Z,99.90
2022-09-20T23:31:47.940Z,99.90
2022-09-20T23:34:16.481Z,99.90
2022-09-20T23:36:44.542Z,99.90
2022-09-20T23:39:12.854Z,99.90
2022-09-20T23:41:41.463Z,99.90
2022-09-20T23:44:12.157Z,99.90
2022-09-20T23:46:40.185Z,99.90
2022-09-20T23:49:09.282Z,99.90
2022-09-20T23:51:37.466Z,99.90
2022-09-20T23:54:07.394Z,99.90
2022-09-20T23:56:35.903Z,99.90
2022-09-20T23:59:03.228Z,99.90
